This is the latest recevied weather packets stored in our database for station/object EA6AMI-5. If no packets are shown the sender has not sent any weather packets the latest 10 day(s).
| Time | Temp. | Humidity | Pressure | Rain* | Wind** | Luminosity | Snow |
|---|---|---|---|---|---|---|---|
| 1778067903 | 20.56° C | 61% | 1011.5 hPa | 0 mm | - | 185 W/m² | - |
| 1778067364 | 21.11° C | 60% | 1011.6 hPa | 0 mm | - | 140 W/m² | - |
| 1778066823 | 22.22° C | 52% | 1011.4 hPa | 0 mm | - | 236 W/m² | - |
| 1778066283 | 22.22° C | 47% | 1011.6 hPa | 0 mm | - | 425 W/m² | - |
| 1778065744 | 22.78° C | 44% | 1011.6 hPa | 0 mm | - | 282 W/m² | - |
| 1778065204 | 22.78° C | 46% | 1011.9 hPa | 0 mm | - | 1007 W/m² | - |
| 1778064844 | 22.78° C | 46% | 1012 hPa | 0 mm | - | 952 W/m² | - |
| 1778064304 | 22.22° C | 48% | 1011.8 hPa | 0 mm | - | 910 W/m² | - |
| 1778063763 | 21.67° C | 50% | 1012 hPa | 0 mm | - | 911 W/m² | - |
| 1778063224 | 21.67° C | 51% | 1012 hPa | 0 mm | - | 904 W/m² | - |
| 1778062684 | 21.67° C | 50% | 1012.2 hPa | 0 mm | - | 903 W/m² | - |
| 1778062144 | 21.11° C | 52% | 1012 hPa | 0 mm | - | 829 W/m² | - |
| 1778061604 | 21.67° C | 52% | 1012.3 hPa | 0 mm | - | 824 W/m² | - |
| 1778061243 | 21.67° C | 53% | 1012.1 hPa | 0 mm | - | 783 W/m² | - |
| 1778060703 | 21.11° C | 54% | 1012 hPa | 0 mm | - | 721 W/m² | - |
| 1778060164 | 21.11° C | 53% | 1012.2 hPa | 0 mm | - | 721 W/m² | - |
| 1778059624 | 20.56° C | 57% | 1012 hPa | 0 mm | - | 684 W/m² | - |
| 1778059083 | 20.56° C | 56% | 1012.2 hPa | 0 mm | - | 650 W/m² | - |
| 1778058543 | 20.56° C | 58% | 1012.1 hPa | 0 mm | - | 644 W/m² | - |
| 1778058004 | 20° C | 56% | 1012 hPa | 0 mm | - | 589 W/m² | - |
| 1778057643 | 20° C | 56% | 1012.1 hPa | 0 mm | - | 567 W/m² | - |
| 1778057104 | 19.44° C | 59% | 1012 hPa | 0 mm | - | 545 W/m² | - |
| 1778056563 | 20° C | 59% | 1012.4 hPa | 0 mm | - | 508 W/m² | - |
| 1778056024 | 19.44° C | 60% | 1012.2 hPa | 0 mm | - | 477 W/m² | - |
| 1778055484 | 19.44° C | 64% | 1012.3 hPa | 0 mm | - | 432 W/m² | - |
* Rain latest hour (hover to see other rain measurements)
** Current wind speed in m/s (hover to see current wind gust speed)